createdAt,value
2018-04-25T00:01:31.276Z,95.00
2018-04-25T00:03:58.830Z,95.00
2018-04-25T00:06:26.376Z,94.90
2018-04-25T00:08:53.960Z,94.90
2018-04-25T00:11:21.509Z,94.90
2018-04-25T00:13:49.060Z,94.90
2018-04-25T00:16:17.477Z,94.90
2018-04-25T00:18:45.028Z,94.80
2018-04-25T00:21:12.576Z,94.80
2018-04-25T00:23:40.120Z,94.80
2018-04-25T00:26:07.664Z,94.90
2018-04-25T00:28:35.220Z,94.90
2018-04-25T00:31:02.776Z,94.90
2018-04-25T00:33:30.334Z,94.90
2018-04-25T00:35:57.912Z,94.90
2018-04-25T00:38:25.470Z,94.80
2018-04-25T00:40:53.016Z,94.90
2018-04-25T00:43:20.572Z,94.80
2018-04-25T00:45:48.240Z,94.80
2018-04-25T00:48:15.755Z,94.60
2018-04-25T00:50:44.064Z,94.60
2018-04-25T00:53:11.608Z,94.60
2018-04-25T00:55:39.161Z,94.60
2018-04-25T00:58:06.711Z,94.60
2018-04-25T01:00:35.048Z,94.70
2018-04-25T01:03:02.597Z,94.70
2018-04-25T01:05:30.147Z,94.70
2018-04-25T01:07:57.699Z,94.70
2018-04-25T01:10:25.254Z,94.60
2018-04-25T01:12:52.828Z,94.40
2018-04-25T01:15:20.378Z,94.50
2018-04-25T01:17:47.931Z,94.30
2018-04-25T01:20:15.476Z,94.20
2018-04-25T01:22:43.024Z,94.40
2018-04-25T01:28:22.792Z,94.10
2018-04-25T01:30:54.151Z,94.20
2018-04-25T01:33:23.492Z,94.00
2018-04-25T01:36:08.734Z,94.10
2018-04-25T01:38:38.096Z,94.10
2018-04-25T01:41:12.114Z,93.90
2018-04-25T01:43:40.452Z,93.90
2018-04-25T01:46:07.997Z,93.90
2018-04-25T01:49:06.132Z,93.90
2018-04-25T01:51:45.436Z,94.00
2018-04-25T01:54:24.756Z,93.90
2018-04-25T01:57:04.097Z,94.00
2018-04-25T01:59:43.312Z,94.00
2018-04-25T02:02:10.400Z,93.80
2018-04-25T02:04:37.944Z,93.80
2018-04-25T02:07:05.492Z,93.90
2018-04-25T02:09:33.041Z,93.80
2018-04-25T02:12:00.596Z,93.70
2018-04-25T02:14:28.176Z,93.40
2018-04-25T02:16:55.733Z,93.10
2018-04-25T02:19:24.046Z,92.90
2018-04-25T02:21:51.592Z,92.90
2018-04-25T02:24:19.135Z,93.00
2018-04-25T02:26:46.715Z,93.20
2018-04-25T02:29:14.258Z,92.90
2018-04-25T02:31:41.805Z,93.00
2018-04-25T02:34:09.352Z,92.60
2018-04-25T02:36:36.901Z,92.80
2018-04-25T02:39:04.471Z,92.60
2018-04-25T02:41:32.031Z,92.70
2018-04-25T02:43:59.585Z,92.60
2018-04-25T02:46:27.940Z,92.80
2018-04-25T02:48:55.488Z,92.70
2018-04-25T02:51:23.828Z,93.00
2018-04-25T02:53:51.379Z,93.00
2018-04-25T02:56:18.924Z,92.80
2018-04-25T02:58:46.474Z,93.20
2018-04-25T03:01:14.792Z,93.20
2018-04-25T03:03:42.348Z,93.20
2018-04-25T03:06:09.984Z,93.20
2018-04-25T03:08:37.532Z,93.00
2018-04-25T03:11:05.852Z,93.10
2018-04-25T03:13:33.425Z,93.10
2018-04-25T03:16:00.972Z,93.10
2018-04-25T03:18:28.516Z,93.20
2018-04-25T03:20:56.064Z,93.10
2018-04-25T03:23:23.615Z,93.00
2018-04-25T03:25:51.200Z,92.60
2018-04-25T03:28:18.752Z,92.40
2018-04-25T03:30:46.300Z,92.50
2018-04-25T03:33:13.848Z,92.30
2018-04-25T03:35:41.391Z,92.50
2018-04-25T03:38:08.977Z,92.30
2018-04-25T03:40:36.528Z,92.30
2018-04-25T03:43:04.080Z,92.10
2018-04-25T03:45:31.736Z,92.30
2018-04-25T03:47:59.280Z,92.20
2018-04-25T03:50:26.856Z,92.70
2018-04-25T03:52:54.400Z,92.20
2018-04-25T03:55:21.957Z,92.20
2018-04-25T03:57:49.504Z,92.20
2018-04-25T04:00:17.108Z,92.20
2018-04-25T04:02:44.688Z,92.30
2018-04-25T04:05:12.236Z,92.00
2018-04-25T04:07:39.786Z,92.20
2018-04-25T04:10:07.344Z,92.30
2018-04-25T04:12:34.936Z,92.20
2018-04-25T04:15:02.513Z,92.20
2018-04-25T04:17:30.868Z,92.30
2018-04-25T04:19:58.416Z,92.30
2018-04-25T04:22:25.994Z,92.20
2018-04-25T04:24:53.557Z,92.40
2018-04-25T04:27:21.907Z,92.20
2018-04-25T04:29:49.472Z,92.20
2018-04-25T04:32:17.020Z,92.20
2018-04-25T04:34:44.577Z,92.20
2018-04-25T04:37:12.128Z,92.30
2018-04-25T04:39:39.716Z,92.30
2018-04-25T04:42:07.267Z,92.30
2018-04-25T04:44:34.816Z,92.10
2018-04-25T04:47:02.373Z,92.60
2018-04-25T04:49:29.942Z,92.10
2018-04-25T04:51:58.292Z,92.20
2018-04-25T04:54:25.847Z,92.20
2018-04-25T04:56:53.408Z,92.10
2018-04-25T04:59:20.964Z,92.10
2018-04-25T05:01:48.533Z,92.10
2018-04-25T05:04:16.111Z,91.90
2018-04-25T05:06:43.662Z,91.60
2018-04-25T05:09:11.208Z,91.30
2018-04-25T05:11:38.831Z,91.20
2018-04-25T05:14:06.332Z,91.40
2018-04-25T05:16:33.910Z,91.00
2018-04-25T05:19:01.460Z,91.30
2018-04-25T05:21:29.036Z,90.90
2018-04-25T05:23:57.342Z,90.80
2018-04-25T05:26:24.928Z,90.80
2018-04-25T05:28:52.508Z,90.50
2018-04-25T05:31:20.057Z,90.70
2018-04-25T05:33:47.604Z,90.10
2018-04-25T05:36:15.153Z,90.40
2018-04-25T05:38:42.717Z,90.60
2018-04-25T05:41:10.292Z,90.00
2018-04-25T05:43:37.840Z,90.20
2018-04-25T05:46:05.481Z,90.30
2018-04-25T05:48:33.746Z,90.20
2018-04-25T05:51:01.296Z,90.20
2018-04-25T05:53:28.876Z,89.90
2018-04-25T05:55:56.420Z,89.70
2018-04-25T05:58:23.966Z,90.00
2018-04-25T06:00:51.516Z,90.10
2018-04-25T06:03:19.100Z,90.10
2018-04-25T06:05:46.674Z,89.10
2018-04-25T06:08:14.234Z,89.00
2018-04-25T06:10:41.786Z,88.90
2018-04-25T06:13:09.348Z,89.10
2018-04-25T06:15:36.896Z,88.60
2018-04-25T06:18:04.600Z,89.60
2018-04-25T06:20:32.148Z,89.00
2018-04-25T06:22:59.704Z,88.40
2018-04-25T06:25:28.020Z,85.70
2018-04-25T06:27:55.573Z,85.70
2018-04-25T06:30:23.908Z,85.60
2018-04-25T06:32:51.504Z,85.70
2018-04-25T06:35:19.056Z,85.70
2018-04-25T06:37:46.607Z,82.50
2018-04-25T06:40:14.916Z,82.80
2018-04-25T06:42:42.482Z,82.70
2018-04-25T06:45:10.027Z,81.70
2018-04-25T06:47:37.576Z,80.70
2018-04-25T06:50:05.124Z,82.00
2018-04-25T06:52:32.673Z,80.40
2018-04-25T06:55:00.252Z,81.60
2018-04-25T06:57:27.809Z,81.60
2018-04-25T06:59:55.356Z,80.60
2018-04-25T07:02:22.904Z,80.50
2018-04-25T07:04:50.463Z,80.50
2018-04-25T07:07:18.056Z,79.80
2018-04-25T07:09:45.609Z,80.00
2018-04-25T07:12:13.931Z,79.80
2018-04-25T07:14:41.480Z,79.80
2018-04-25T07:17:09.031Z,80.60
2018-04-25T07:19:36.607Z,79.50
2018-04-25T07:22:04.162Z,80.40
2018-04-25T07:24:31.704Z,80.20
2018-04-25T07:26:59.256Z,79.40
2018-04-25T07:29:26.806Z,80.80
2018-04-25T07:31:54.380Z,81.20
2018-04-25T07:34:21.939Z,80.20
2018-04-25T07:36:49.489Z,81.40
2018-04-25T07:39:17.082Z,80.50
2018-04-25T07:41:44.658Z,79.90
2018-04-25T07:44:12.235Z,80.30
2018-04-25T07:46:39.792Z,80.30
2018-04-25T07:49:07.350Z,79.80
2018-04-25T07:51:34.900Z,79.70
2018-04-25T07:54:02.444Z,78.80
2018-04-25T07:56:30.024Z,78.10
2018-04-25T07:58:57.569Z,79.20
2018-04-25T08:01:25.120Z,79.10
2018-04-25T08:03:52.672Z,78.80
2018-04-25T08:06:20.220Z,78.70
2018-04-25T08:08:48.575Z,78.00
2018-04-25T08:11:16.136Z,77.90
2018-04-25T08:13:55.500Z,76.80
2018-04-25T08:16:34.796Z,75.90
2018-04-25T08:19:14.077Z,76.10
2018-04-25T08:21:43.336Z,76.20
2018-04-25T08:24:11.654Z,75.40
2018-04-25T08:26:39.198Z,75.30
2018-04-25T08:29:06.762Z,75.20
2018-04-25T08:31:34.336Z,74.70
2018-04-25T08:34:01.887Z,74.10
2018-04-25T08:36:29.440Z,74.90
2018-04-25T08:38:56.998Z,73.50
2018-04-25T08:41:24.544Z,72.80
2018-04-25T08:43:52.084Z,73.00
2018-04-25T08:46:19.645Z,73.50
2018-04-25T08:48:47.194Z,73.30
2018-04-25T08:51:15.511Z,71.90
2018-04-25T08:53:43.062Z,71.90
2018-04-25T08:56:10.608Z,70.60
2018-04-25T08:58:38.182Z,70.60
2018-04-25T09:01:05.767Z,69.10
2018-04-25T09:03:33.323Z,66.70
2018-04-25T09:06:01.656Z,66.10
2018-04-25T09:08:29.208Z,66.00
2018-04-25T09:10:56.788Z,67.00
2018-04-25T09:13:24.337Z,66.40
2018-04-25T09:15:51.892Z,65.90
2018-04-25T09:18:19.448Z,64.50
2018-04-25T09:20:46.996Z,66.40
2018-04-25T09:23:14.575Z,64.70
2018-04-25T09:25:42.136Z,60.80
2018-04-25T09:28:09.684Z,62.80
2018-04-25T09:30:37.239Z,61.70
2018-04-25T09:33:04.801Z,60.80
2018-04-25T09:35:32.380Z,61.00
2018-04-25T09:37:59.936Z,60.80
2018-04-25T09:40:27.511Z,59.60
2018-04-25T09:42:55.062Z,61.30
2018-04-25T09:45:23.384Z,59.40
2018-04-25T09:47:50.960Z,59.40
2018-04-25T09:50:18.512Z,58.90
2018-04-25T09:52:46.068Z,59.90
2018-04-25T09:55:14.383Z,57.80
2018-04-25T09:57:41.958Z,57.80
2018-04-25T10:00:09.537Z,57.60
2018-04-25T10:02:37.092Z,58.00
2018-04-25T10:05:04.644Z,58.40
2018-04-25T10:07:32.196Z,57.00
2018-04-25T10:09:59.757Z,55.20
2018-04-25T10:12:27.332Z,54.90
2018-04-25T10:14:54.887Z,56.40
2018-04-25T10:17:22.441Z,54.40
2018-04-25T10:19:50.024Z,56.20
2018-04-25T10:22:17.596Z,54.90
2018-04-25T10:24:45.176Z,54.50
2018-04-25T10:27:12.732Z,54.00
2018-04-25T10:29:40.284Z,54.70
2018-04-25T10:32:08.660Z,52.80
2018-04-25T10:34:36.941Z,53.80
2018-04-25T10:37:04.508Z,53.70
2018-04-25T10:39:32.057Z,53.10
2018-04-25T10:41:59.610Z,51.90
2018-04-25T10:44:27.160Z,51.20
2018-04-25T10:46:54.708Z,51.00
2018-04-25T10:49:23.068Z,52.10
2018-04-25T10:51:50.624Z,52.10
2018-04-25T10:54:18.241Z,51.10
2018-04-25T10:56:45.796Z,51.30
2018-04-25T10:59:13.357Z,50.50
2018-04-25T11:01:40.928Z,49.80
2018-04-25T11:04:08.483Z,50.90
2018-04-25T11:06:36.032Z,51.30
2018-04-25T11:09:03.641Z,48.50
2018-04-25T11:11:31.168Z,48.60
2018-04-25T11:13:58.748Z,49.70
2018-04-25T11:16:27.064Z,48.50
2018-04-25T11:18:54.615Z,48.50
2018-04-25T11:21:22.164Z,50.50
2018-04-25T11:23:49.712Z,48.90
2018-04-25T11:26:17.289Z,49.20
2018-04-25T11:28:44.854Z,49.70
2018-04-25T11:31:12.405Z,49.50
2018-04-25T11:33:39.956Z,49.10
2018-04-25T11:36:07.500Z,50.00
2018-04-25T11:38:35.087Z,48.50
2018-04-25T11:41:02.645Z,49.00
2018-04-25T11:43:30.321Z,48.20
2018-04-25T11:45:57.912Z,48.80
2018-04-25T11:48:26.237Z,47.00
2018-04-25T11:50:53.824Z,47.00
2018-04-25T11:53:21.372Z,46.80
2018-04-25T11:55:48.927Z,46.80
2018-04-25T11:58:16.475Z,46.50
2018-04-25T12:00:44.025Z,47.10
2018-04-25T12:03:11.610Z,45.80
2018-04-25T12:05:39.166Z,46.50
2018-04-25T12:08:06.736Z,47.80
2018-04-25T12:10:34.292Z,46.20
2018-04-25T12:13:01.870Z,46.20
2018-04-25T12:15:29.444Z,46.00
2018-04-25T12:17:56.996Z,47.60
2018-04-25T12:20:25.315Z,46.20
2018-04-25T12:22:52.861Z,46.30
2018-04-25T12:25:20.411Z,47.40
2018-04-25T12:27:47.988Z,45.60
2018-04-25T12:30:15.539Z,45.00
2018-04-25T12:32:43.096Z,46.10
2018-04-25T12:35:10.652Z,46.20
2018-04-25T12:37:38.204Z,46.30
2018-04-25T12:40:05.780Z,45.90
2018-04-25T12:42:33.340Z,46.70
2018-04-25T12:45:00.888Z,44.20
2018-04-25T12:47:28.443Z,45.50
2018-04-25T12:49:56.003Z,45.50
2018-04-25T12:52:23.610Z,45.30
2018-04-25T12:54:51.169Z,44.00
2018-04-25T12:57:19.496Z,45.40
2018-04-25T12:59:47.049Z,45.30
2018-04-25T13:02:14.600Z,44.80
2018-04-25T13:04:42.190Z,43.10
2018-04-25T13:07:09.769Z,42.50
2018-04-25T13:09:38.105Z,43.70
2018-04-25T13:12:05.658Z,43.50
2018-04-25T13:14:33.207Z,42.40
2018-04-25T13:17:00.787Z,42.00
2018-04-25T13:19:28.341Z,42.10
2018-04-25T13:21:55.898Z,41.20
2018-04-25T13:24:23.444Z,41.60
2018-04-25T13:26:50.995Z,42.30
2018-04-25T13:29:18.632Z,39.80
2018-04-25T13:31:46.200Z,40.80
2018-04-25T13:34:13.751Z,41.30
2018-04-25T13:36:41.306Z,40.00
2018-04-25T13:39:08.859Z,41.40
2018-04-25T13:41:37.206Z,42.50
2018-04-25T13:44:04.756Z,42.50
2018-04-25T13:46:32.316Z,44.30
2018-04-25T13:48:59.875Z,43.90
2018-04-25T13:51:27.425Z,43.90
2018-04-25T13:53:54.996Z,44.80
2018-04-25T13:56:22.548Z,45.40
2018-04-25T13:58:50.127Z,44.60
2018-04-25T14:01:17.688Z,46.30
2018-04-25T14:03:45.244Z,45.30
2018-04-25T14:06:12.907Z,45.50
2018-04-25T14:08:40.400Z,44.60
2018-04-25T14:11:08.172Z,43.20
2018-04-25T14:13:35.730Z,43.70
2018-04-25T14:16:03.280Z,45.20
2018-04-25T14:18:30.860Z,44.60
2018-04-25T14:20:58.414Z,45.30
2018-04-25T14:23:25.966Z,45.30
2018-04-25T14:25:53.511Z,46.30
2018-04-25T14:28:21.060Z,45.20
2018-04-25T14:30:48.672Z,45.30
2018-04-25T14:33:16.228Z,45.30
2018-04-25T14:35:43.789Z,44.60
2018-04-25T14:38:11.344Z,44.60
2018-04-25T14:40:38.900Z,43.70
2018-04-25T14:43:06.473Z,44.70
2018-04-25T14:45:34.027Z,43.40
2018-04-25T14:48:01.580Z,42.60
2018-04-25T14:50:29.136Z,43.20
2018-04-25T14:52:56.695Z,43.50
2018-04-25T14:55:24.274Z,41.90
2018-04-25T14:57:52.598Z,41.60
2018-04-25T15:00:20.157Z,41.60
2018-04-25T15:02:47.732Z,42.70
2018-04-25T15:05:16.048Z,44.90
2018-04-25T15:07:44.364Z,44.20
2018-04-25T15:10:11.920Z,44.20
2018-04-25T15:12:39.474Z,43.40
2018-04-25T15:15:07.038Z,44.70
2018-04-25T15:17:34.600Z,44.40
2018-04-25T15:20:02.170Z,42.40
2018-04-25T15:22:29.736Z,43.10
2018-04-25T15:24:57.288Z,42.80
2018-04-25T15:27:24.848Z,42.10
2018-04-25T15:29:52.424Z,42.10
2018-04-25T15:32:20.060Z,43.00
2018-04-25T15:34:47.556Z,43.90
2018-04-25T15:37:15.875Z,44.50
2018-04-25T15:39:43.429Z,44.40
2018-04-25T15:42:11.018Z,43.30
2018-04-25T15:44:38.581Z,43.50
2018-04-25T15:47:06.136Z,42.90
2018-04-25T15:49:33.714Z,43.00
2018-04-25T15:52:01.273Z,42.70
2018-04-25T15:54:28.843Z,41.90
2018-04-25T15:56:56.401Z,41.20
2018-04-25T15:59:24.007Z,41.40
2018-04-25T16:01:51.576Z,42.30
2018-04-25T16:04:19.132Z,43.20
2018-04-25T16:06:46.709Z,44.50
2018-04-25T16:09:14.260Z,44.30
2018-04-25T16:11:41.816Z,44.30
2018-04-25T16:14:09.409Z,44.00
2018-04-25T16:16:36.956Z,44.50
2018-04-25T16:19:04.540Z,45.30
2018-04-25T16:21:32.113Z,44.10
2018-04-25T16:23:59.681Z,44.50
2018-04-25T16:26:27.239Z,43.40
2018-04-25T16:28:54.796Z,44.50
2018-04-25T16:31:22.388Z,45.00
2018-04-25T16:33:49.940Z,44.70
2018-04-25T16:36:17.492Z,45.30
2018-04-25T16:38:45.049Z,45.60
2018-04-25T16:41:12.605Z,45.30
2018-04-25T16:43:40.191Z,45.70
2018-04-25T16:46:07.740Z,46.40
2018-04-25T16:48:35.304Z,46.60
2018-04-25T16:51:02.930Z,47.60
2018-04-25T16:53:30.548Z,48.50
2018-04-25T16:55:58.148Z,51.30
2018-04-25T16:58:25.705Z,52.90
2018-04-25T17:00:53.261Z,54.10
2018-04-25T17:03:20.813Z,55.10
2018-04-25T17:05:48.361Z,55.20
2018-04-25T17:08:15.944Z,55.60
2018-04-25T17:10:43.508Z,56.00
2018-04-25T17:13:11.065Z,56.20
2018-04-25T17:15:38.621Z,56.50
2018-04-25T17:18:07.964Z,56.70
2018-04-25T17:20:35.712Z,56.80
2018-04-25T17:23:03.295Z,56.90
2018-04-25T17:25:30.847Z,57.60
2018-04-25T17:27:59.160Z,58.80
2018-04-25T17:30:26.712Z,58.80
2018-04-25T17:32:54.289Z,58.30
2018-04-25T17:35:21.840Z,58.80
2018-04-25T17:37:49.388Z,59.40
2018-04-25T17:40:16.936Z,59.60
2018-04-25T17:42:44.551Z,60.00
2018-04-25T17:45:12.092Z,60.40
2018-04-25T17:47:39.648Z,60.50
2018-04-25T17:50:07.225Z,61.00
2018-04-25T17:52:34.789Z,61.60
2018-04-25T17:55:03.116Z,61.90
2018-04-25T17:57:30.757Z,61.90
2018-04-25T17:59:58.359Z,61.40
2018-04-25T18:02:25.908Z,61.70
2018-04-25T18:04:54.221Z,63.40
2018-04-25T18:07:21.783Z,63.30
2018-04-25T18:09:49.384Z,63.70
2018-04-25T18:12:16.932Z,63.70
2018-04-25T18:14:44.484Z,63.90
2018-04-25T18:17:12.142Z,64.20
2018-04-25T18:19:39.632Z,64.50
2018-04-25T18:22:07.208Z,64.80
2018-04-25T18:24:34.763Z,65.30
2018-04-25T18:27:02.312Z,65.70
2018-04-25T18:29:29.860Z,65.70
2018-04-25T18:31:57.409Z,66.00
2018-04-25T18:34:24.983Z,65.80
2018-04-25T18:36:52.528Z,65.60
2018-04-25T18:39:20.077Z,66.20
2018-04-25T18:41:48.120Z,66.70
2018-04-25T18:44:15.733Z,67.30
2018-04-25T18:46:44.359Z,67.70
2018-04-25T18:49:12.485Z,68.50
2018-04-25T18:51:40.506Z,69.00
2018-04-25T18:54:08.870Z,68.70
2018-04-25T18:56:36.578Z,68.80
2018-04-25T18:59:04.963Z,69.20
2018-04-25T19:01:32.954Z,70.40
2018-04-25T19:04:01.373Z,71.40
2018-04-25T19:06:28.934Z,71.40
2018-04-25T19:08:56.730Z,71.30
2018-04-25T19:11:24.638Z,72.20
2018-04-25T19:13:52.540Z,72.70
2018-04-25T19:16:20.128Z,73.10
2018-04-25T19:18:47.676Z,72.90
2018-04-25T19:21:15.845Z,73.10
2018-04-25T19:23:44.078Z,73.60
2018-04-25T19:26:12.399Z,73.60
2018-04-25T19:28:41.482Z,74.10
2018-04-25T19:31:09.685Z,74.10
2018-04-25T19:33:38.701Z,73.90
2018-04-25T19:36:07.661Z,75.00
2018-04-25T19:38:35.871Z,74.70
2018-04-25T19:41:03.931Z,74.40
2018-04-25T19:43:31.523Z,74.60
2018-04-25T19:45:59.068Z,75.30
2018-04-25T19:48:26.624Z,75.60
2018-04-25T19:50:54.202Z,75.40
2018-04-25T19:53:21.752Z,76.20
2018-04-25T19:55:49.309Z,76.10
2018-04-25T19:58:16.860Z,77.00
2018-04-25T20:00:44.424Z,77.10
2018-04-25T20:03:11.994Z,77.50
2018-04-25T20:05:39.582Z,77.00
2018-04-25T20:08:07.128Z,77.20
2018-04-25T20:10:34.675Z,77.50
2018-04-25T20:13:02.237Z,77.80
2018-04-25T20:15:29.808Z,78.00
2018-04-25T20:17:57.358Z,77.90
2018-04-25T20:20:24.901Z,78.40
2018-04-25T20:22:52.457Z,78.20
2018-04-25T20:25:20.004Z,78.50
2018-04-25T20:27:47.584Z,78.50
2018-04-25T20:30:15.896Z,79.40
2018-04-25T20:32:43.444Z,78.70
2018-04-25T20:35:10.992Z,78.50
2018-04-25T20:37:38.556Z,78.20
2018-04-25T20:40:06.129Z,77.70
2018-04-25T20:42:33.668Z,77.70
2018-04-25T20:45:01.219Z,77.80
2018-04-25T20:47:28.768Z,78.10
2018-04-25T20:49:56.331Z,78.00
2018-04-25T20:52:23.912Z,77.90
2018-04-25T20:54:51.456Z,77.80
2018-04-25T20:57:20.523Z,78.50
2018-04-25T20:59:48.069Z,78.50
2018-04-25T21:02:15.648Z,77.80
2018-04-25T21:04:43.232Z,78.30
2018-04-25T21:07:10.797Z,78.10
2018-04-25T21:09:39.121Z,78.90
2018-04-25T21:12:06.672Z,78.90
2018-04-25T21:14:34.223Z,77.70
2018-04-25T21:17:01.793Z,77.80
2018-04-25T21:19:29.344Z,78.50
2018-04-25T21:21:56.896Z,77.80
2018-04-25T21:24:24.445Z,77.20
2018-04-25T21:26:51.992Z,76.80
2018-04-25T21:29:19.564Z,77.20
2018-04-25T21:31:47.108Z,76.60
2018-04-25T21:34:15.424Z,76.40
2018-04-25T21:36:42.970Z,76.30
2018-04-25T21:39:10.521Z,77.10
2018-04-25T21:41:38.099Z,78.60
2018-04-25T21:44:05.650Z,78.10
2018-04-25T21:46:33.196Z,78.30
2018-04-25T21:49:00.773Z,78.20
2018-04-25T21:51:28.328Z,79.10
2018-04-25T21:53:55.882Z,79.20
2018-04-25T21:56:23.431Z,79.40
2018-04-25T21:58:50.976Z,79.50
2018-04-25T22:01:18.548Z,79.80
2018-04-25T22:03:46.093Z,79.80
2018-04-25T22:06:13.644Z,79.80
2018-04-25T22:08:41.200Z,80.00
2018-04-25T22:11:08.763Z,80.40
2018-04-25T22:13:36.317Z,80.80
2018-04-25T22:16:03.888Z,80.90
2018-04-25T22:18:31.436Z,81.50
2018-04-25T22:20:58.992Z,81.20
2018-04-25T22:23:26.548Z,81.50
2018-04-25T22:25:54.856Z,82.10
2018-04-25T22:28:22.443Z,82.10
2018-04-25T22:30:49.992Z,82.10
2018-04-25T22:33:17.536Z,82.00
2018-04-25T22:35:45.090Z,82.10
2018-04-25T22:38:12.636Z,82.50
2018-04-25T22:40:40.200Z,82.40
2018-04-25T22:43:07.744Z,82.60
2018-04-25T22:45:35.300Z,82.70
2018-04-25T22:48:02.848Z,82.50
2018-04-25T22:50:30.397Z,81.90
2018-04-25T22:52:57.977Z,82.50
2018-04-25T22:55:25.525Z,82.50
2018-04-25T22:57:53.076Z,82.50
2018-04-25T23:00:20.656Z,82.60
2018-04-25T23:02:48.195Z,82.70
2018-04-25T23:05:15.760Z,82.80
2018-04-25T23:07:43.310Z,83.20
2018-04-25T23:10:10.941Z,83.40
2018-04-25T23:12:38.440Z,83.10
2018-04-25T23:15:05.987Z,83.10
2018-04-25T23:17:33.556Z,83.00
2018-04-25T23:20:01.113Z,83.50
2018-04-25T23:22:28.660Z,84.00
2018-04-25T23:24:56.270Z,84.00
2018-04-25T23:27:23.794Z,83.80
2018-04-25T23:29:51.364Z,83.70
2018-04-25T23:32:18.920Z,83.90
2018-04-25T23:34:46.473Z,85.00
2018-04-25T23:37:14.117Z,85.90
2018-04-25T23:39:41.668Z,85.60
2018-04-25T23:42:09.238Z,85.20
2018-04-25T23:44:36.786Z,84.80
2018-04-25T23:47:04.339Z,85.80
2018-04-25T23:49:31.896Z,86.40
2018-04-25T23:51:59.444Z,87.00
2018-04-25T23:54:28.054Z,86.80
2018-04-25T23:56:55.600Z,86.70
2018-04-25T23:59:23.144Z,86.70
